createdAt,value
2019-05-14T00:00:51.962Z,3.8
2019-05-14T00:05:51.460Z,3.8
2019-05-14T00:10:51.775Z,3.7
2019-05-14T00:15:49.372Z,3.6
2019-05-14T00:20:51.147Z,3.6
2019-05-14T00:25:49.401Z,3.5
2019-05-14T00:30:55.288Z,3.4
2019-05-14T00:35:55.346Z,3.3
2019-05-14T00:40:55.281Z,3.2
2019-05-14T00:45:56.142Z,3.2
2019-05-14T00:50:56.388Z,3.1
2019-05-14T00:56:11.661Z,3
2019-05-14T01:01:12.015Z,3
2019-05-14T01:06:12.463Z,2.9
2019-05-14T01:11:16.641Z,2.8
2019-05-14T01:16:24.711Z,2.8
2019-05-14T01:22:04.644Z,2.7
2019-05-14T01:26:32.319Z,2.7
2019-05-14T01:31:32.312Z,2.6
2019-05-14T01:36:32.437Z,2.5
2019-05-14T01:41:32.325Z,2.5
2019-05-14T01:46:32.390Z,2.4
2019-05-14T01:51:32.369Z,2.4
2019-05-14T01:56:32.292Z,2.3
2019-05-14T02:01:32.326Z,2.2
2019-05-14T02:06:32.514Z,2.2
2019-05-14T02:11:32.671Z,2.1
2019-05-14T02:16:33.129Z,2
2019-05-14T02:21:35.173Z,2
2019-05-14T02:26:35.067Z,1.9
2019-05-14T02:31:39.077Z,1.9
2019-05-14T02:36:40.597Z,1.8
2019-05-14T02:41:40.506Z,1.8
2019-05-14T02:46:50.212Z,1.7
2019-05-14T02:51:50.012Z,1.6
2019-05-14T02:56:49.493Z,1.5
2019-05-14T03:01:49.392Z,1.5
2019-05-14T03:06:49.613Z,1.5
2019-05-14T03:11:48.475Z,1.4
2019-05-14T03:16:49.445Z,1.4
2019-05-14T03:21:50.032Z,1.3
2019-05-14T03:26:49.899Z,1.3
2019-05-14T03:32:13.933Z,1.2
2019-05-14T03:37:23.236Z,1.1
2019-05-14T03:42:20.420Z,1.1
2019-05-14T03:47:21.166Z,1.1
2019-05-14T03:52:21.152Z,1
2019-05-14T03:57:21.768Z,0.9
2019-05-14T04:02:24.253Z,0.9
2019-05-14T04:07:23.939Z,0.9
2019-05-14T04:12:24.148Z,0.8
2019-05-14T04:17:33.332Z,0.8
2019-05-14T04:22:24.522Z,0.8
2019-05-14T04:27:24.499Z,0.8
2019-05-14T04:32:28.841Z,0.8
2019-05-14T04:37:28.669Z,0.8
2019-05-14T04:42:29.213Z,0.9
2019-05-14T04:47:33.019Z,0.9
2019-05-14T04:52:28.949Z,0.9
2019-05-14T04:57:30.358Z,0.9
2019-05-14T05:02:31.763Z,1
2019-05-14T05:07:31.880Z,1.1
2019-05-14T05:12:32.882Z,1.2
2019-05-14T05:17:43.986Z,1.3
2019-05-14T05:22:39.345Z,1.4
2019-05-14T05:33:01.187Z,1.9
2019-05-14T05:38:01.397Z,2.3
2019-05-14T05:43:01.425Z,2.4
2019-05-14T05:48:01.867Z,2.7
2019-05-14T05:53:01.483Z,2.9
2019-05-14T05:58:01.487Z,3.1
2019-05-14T06:03:01.459Z,3.3
2019-05-14T06:08:01.432Z,3.3
2019-05-14T06:13:14.011Z,3.6
2019-05-14T06:18:17.949Z,3.9
2019-05-14T06:23:48.940Z,4.1
2019-05-14T06:28:51.448Z,4.3
2019-05-14T06:33:51.890Z,4.5
2019-05-14T06:38:52.592Z,4.7
2019-05-14T07:28:06.050Z,6.3
2019-05-14T07:33:09.818Z,6.4
2019-05-14T07:38:13.823Z,6.6
2019-05-14T07:43:13.604Z,6.8
2019-05-14T07:48:14.544Z,7
2019-05-14T07:53:13.909Z,7.3
2019-05-14T07:58:15.125Z,7.3
2019-05-14T08:03:14.404Z,7.5
2019-05-14T08:08:14.752Z,7.8
2019-05-14T08:13:18.591Z,8.1
2019-05-14T08:18:21.327Z,8.8
2019-05-14T08:23:23.200Z,9.3
2019-05-14T08:28:23.447Z,9.7
2019-05-14T08:33:24.065Z,10.5
2019-05-14T08:38:28.411Z,11.3
2019-05-14T08:43:29.376Z,11.3
2019-05-14T08:48:29.715Z,11.1
2019-05-14T08:53:29.172Z,11.2
2019-05-14T08:58:29.890Z,11.2
2019-05-14T09:03:29.718Z,11.2
2019-05-14T09:08:29.944Z,11.4
2019-05-14T09:13:30.598Z,11.6
2019-05-14T09:18:32.268Z,11.9
2019-05-14T09:23:32.238Z,12.2
2019-05-14T09:28:32.441Z,12.4
2019-05-14T09:33:34.831Z,12.7
2019-05-14T09:38:34.804Z,13.1
2019-05-14T09:43:35.191Z,13.8
2019-05-14T09:48:34.912Z,14.3
2019-05-14T09:53:34.798Z,14.4
2019-05-14T09:58:34.821Z,14.8
2019-05-14T10:03:35.463Z,14.6
2019-05-14T10:08:38.993Z,14.7
2019-05-14T10:19:34.584Z,15.1
2019-05-14T10:24:34.839Z,14.7
2019-05-14T10:29:41.648Z,15.2
2019-05-14T10:34:48.311Z,15.1
2019-05-14T10:39:47.488Z,14.4
2019-05-14T10:44:48.594Z,14.4
2019-05-14T10:49:48.515Z,14.6
2019-05-14T10:54:55.655Z,14.7
2019-05-14T10:59:48.645Z,14.5
2019-05-14T11:04:49.802Z,14.4
2019-05-14T11:09:53.039Z,15.2
2019-05-14T11:14:53.243Z,15.6
2019-05-14T11:19:54.440Z,16.1
2019-05-14T11:24:59.058Z,16
2019-05-14T11:29:58.699Z,16.1
2019-05-14T11:35:01.847Z,16.7
2019-05-14T11:40:02.983Z,16.7
2019-05-14T11:45:02.210Z,17.1
2019-05-14T11:50:02.529Z,17.2
2019-05-14T11:55:03.898Z,17.5
2019-05-14T12:00:08.501Z,17.4
2019-05-14T12:05:09.372Z,16.7
2019-05-14T12:10:19.122Z,16.5
2019-05-14T12:16:16.202Z,17.3
2019-05-14T12:21:22.441Z,17.5
2019-05-14T12:26:40.903Z,16.9
2019-05-14T12:31:40.741Z,16.7
2019-05-14T12:36:49.361Z,17
2019-05-14T12:41:48.965Z,17.3
2019-05-14T12:46:49.019Z,17.5
2019-05-14T12:51:51.305Z,17.6
2019-05-14T12:56:54.432Z,17.9
2019-05-14T13:01:58.624Z,17.9
2019-05-14T13:07:02.271Z,17.6
2019-05-14T13:12:10.927Z,17.9
2019-05-14T13:17:09.044Z,18
2019-05-14T13:22:13.490Z,18
2019-05-14T13:27:09.399Z,17.7
2019-05-14T13:32:12.970Z,17.7
2019-05-14T13:37:13.071Z,18
2019-05-14T13:42:13.968Z,18.6
2019-05-14T13:47:18.165Z,18.1
2019-05-14T13:52:25.070Z,17.7
2019-05-14T13:57:32.117Z,18.2
2019-05-14T14:02:34.397Z,18.3
2019-05-14T14:07:42.276Z,18.2
2019-05-14T14:12:49.530Z,18
2019-05-14T14:17:51.025Z,18.1
2019-05-14T14:22:58.550Z,18.4
2019-05-14T14:28:10.155Z,18.2
2019-05-14T14:33:10.206Z,18.1
2019-05-14T14:38:11.131Z,18.5
2019-05-14T14:43:11.163Z,18.6
2019-05-14T14:48:12.468Z,18
2019-05-14T14:53:11.431Z,18
2019-05-14T14:58:14.147Z,18.3
2019-05-14T15:03:20.881Z,18.9
2019-05-14T15:08:20.041Z,18.7
2019-05-14T15:13:17.254Z,18
2019-05-14T15:18:58.264Z,17.7
2019-05-14T15:24:06.922Z,18
2019-05-14T15:28:58.338Z,17.8
2019-05-14T15:33:59.278Z,17.9
2019-05-14T15:38:59.009Z,17.5
2019-05-14T15:43:58.797Z,17.6
2019-05-14T15:48:59.452Z,17.6
2019-05-14T15:54:11.490Z,17.7
2019-05-14T15:59:01.364Z,17.6
2019-05-14T16:03:59.059Z,17.5
2019-05-14T16:09:01.729Z,17.2
2019-05-14T16:14:02.231Z,17.1
2019-05-14T16:19:01.455Z,17.3
2019-05-14T16:24:02.146Z,17.1
2019-05-14T16:29:02.104Z,16.9
2019-05-14T16:34:01.956Z,16.7
2019-05-14T16:39:02.657Z,16.8
2019-05-14T16:44:01.093Z,16.7
2019-05-14T16:49:01.353Z,16.5
2019-05-14T16:54:02.612Z,16.5
2019-05-14T16:59:08.926Z,16.3
2019-05-14T17:04:12.826Z,16.2
2019-05-14T17:09:18.718Z,16.1
2019-05-14T17:14:18.320Z,16.1
2019-05-14T17:19:18.731Z,15.8
2019-05-14T17:24:19.749Z,15.8
2019-05-14T17:29:18.818Z,15.7
2019-05-14T17:34:18.528Z,15.7
2019-05-14T17:39:20.922Z,15.6
2019-05-14T17:44:22.155Z,15.4
2019-05-14T17:49:28.323Z,15.4
2019-05-14T17:54:31.178Z,15.2
2019-05-14T17:59:38.979Z,15.1
2019-05-14T18:04:37.823Z,14.9
2019-05-14T18:09:38.034Z,14.7
2019-05-14T18:14:38.738Z,14.6
2019-05-14T18:19:38.561Z,14.5
2019-05-14T18:24:40.938Z,14.4
2019-05-14T18:29:42.734Z,14.3
2019-05-14T18:34:45.245Z,14.2
2019-05-14T18:39:48.869Z,14.1
2019-05-14T18:44:49.753Z,13.9
2019-05-14T18:49:49.891Z,13.8
2019-05-14T18:54:54.187Z,13.7
2019-05-14T18:59:54.943Z,13.6
2019-05-14T19:04:57.882Z,13.4
2019-05-14T19:10:02.743Z,13.1
2019-05-14T19:15:08.667Z,13.1
2019-05-14T19:20:22.253Z,12.9
2019-05-14T19:26:09.404Z,12.7
2019-05-14T19:31:43.419Z,12.6
2019-05-14T19:36:40.454Z,12.4
2019-05-14T19:41:42.694Z,12.1
2019-05-14T19:46:43.461Z,11.9
2019-05-14T19:51:49.041Z,11.6
2019-05-14T19:56:55.844Z,11.3
2019-05-14T20:01:48.370Z,11.1
2019-05-14T20:06:49.116Z,10.9
2019-05-14T20:11:48.838Z,10.6
2019-05-14T20:16:48.463Z,10.4
2019-05-14T20:21:47.975Z,10.2
2019-05-14T20:27:35.671Z,9.9
2019-05-14T20:32:52.817Z,9.7
2019-05-14T20:37:52.820Z,9.5
2019-05-14T20:43:01.194Z,9.2
2019-05-14T20:48:02.055Z,9
2019-05-14T20:53:02.178Z,8.9
2019-05-14T20:58:27.904Z,8.6
2019-05-14T21:03:30.756Z,8.5
2019-05-14T21:08:29.894Z,8.3
2019-05-14T21:13:29.715Z,8.1
2019-05-14T21:18:34.920Z,8
2019-05-14T21:23:32.573Z,7.8
2019-05-14T21:28:32.375Z,7.6
2019-05-14T21:33:32.371Z,7.5
2019-05-14T21:38:32.360Z,7.3
2019-05-14T21:43:35.782Z,7.2
2019-05-14T21:48:34.407Z,7
2019-05-14T21:53:38.585Z,6.8
2019-05-14T21:58:38.618Z,6.7
2019-05-14T22:03:36.552Z,6.6
2019-05-14T22:08:39.001Z,6.4
2019-05-14T22:13:39.592Z,6.3
2019-05-14T22:18:38.633Z,6.2
2019-05-14T22:23:38.700Z,6.1
2019-05-14T22:28:36.516Z,5.9
2019-05-14T22:33:38.383Z,5.8
2019-05-14T22:38:38.704Z,5.7
2019-05-14T22:43:38.305Z,5.6
2019-05-14T22:48:37.308Z,5.5
2019-05-14T22:53:38.827Z,5.4
2019-05-14T22:58:38.540Z,5.3
2019-05-14T23:03:42.803Z,5.2
2019-05-14T23:08:39.391Z,5.1
2019-05-14T23:13:40.358Z,5
2019-05-14T23:18:39.622Z,4.9
2019-05-14T23:23:41.902Z,4.8
2019-05-14T23:28:45.351Z,4.7
2019-05-14T23:33:40.537Z,4.6
2019-05-14T23:38:40.682Z,4.5
2019-05-14T23:43:42.916Z,4.4
2019-05-14T23:48:42.060Z,4.3
2019-05-14T23:53:48.164Z,4.2
2019-05-14T23:58:55.482Z,4.2
